Česky Dansk Deutsch English Español Suomi Français Magyar Italiano Nederlands norsk Polski Português svenska Türkçe

 

Het Weer

Varkaus (Finland)

05:50, 15 april 2016 (GMT)

NWNNE
WE
SWSSE
Home            
Varkaus Mikkeli Savonlinna Kuopio Joensuu Jyvaskyla Lappeenranta Viitasaari Utti Halli Ahtari Kajaani Tampere / Pirkkala Helsinki-Vantaa Helsinki-Malmi Seinajoki-Ilmajok Ilmajoki Kauhava St. Peterburg Kruunupyy Suomussalmi Vaasa Pori

Om een weerknop op uw website of weblog te plaatsen, copieer onderstaande code en plak die in uw pagina. In het eerste vakje staat HTML-code, in het tweede vakje UBB-code.


Add to Google

Details

Wind speed:3 bf, 8 kn, 4.1 m/s, 9.2 miles/h, 14.8 km/h
Wind direction:NNW, 330°
Visibility:Greater than 10000 m, 10 km, 32800 ft, 6.2 miles
Clouds:CAVOC
Temperature:-1°C, 30°F
Gefühlte Temperatur:-6°C, 22°F
Dew-point:-8°C, 18°F
Atmospheric pressure:1005 hPa, 753.8 mmHg, 29.68 inHg, 0.992 atm
Relative humidity:58.9 %
METAR:EFVR 150550Z AUTO 33008KT CAVOK M01/M08 Q1005

Snelkoppelingen

Actuele weersinformatie van de hele wereld. Voeg locaties toe met het plus (+) symbool. Deze snelkoppelingen kunnen worden toegevoegd aan Google.

Lid van de Technetium groep

website free tracking
StatCounter NetStat W3C Validator

06-12-2019 09:23:11
astro.technetium.be money.technetium.be phote.technetium.be tafeltennistafel.technetium.be www.ligfiets.net